Time;durP1;ratioP1;P1;durP2;ratioP2;P2;SDS_P1;SDS_P2;PMS_P1;PMS_P2;Temp;Humidity;BMP_temperature;BMP_pressure;BME280_temperature;BME280_humidity;BME280_pressure;Samples;Min_cycle;Max_cycle;Signal;HPM_P1;HPM_P2
2021/07/13 00:00:41;;;;;;;9.23;4.63;;;;;;;;;;5167931;27;20496;-56
2021/07/13 00:03:17;;;;;;;6.73;4.53;;;;;;;;;;5156542;28;20475;-51
2021/07/13 00:05:48;;;;;;;8.23;4.00;;;;;;;;;;5156233;28;20459;-54
2021/07/13 00:08:20;;;;;;;8.00;5.10;;;;;;;;;;5155501;28;20468;-50
2021/07/13 00:10:47;;;;;;;9.17;5.80;;;;;;;;;;5155374;28;20443;-56
2021/07/13 00:13:15;;;;;;;9.10;5.20;;;;;;;;;;5155816;27;20457;-55
2021/07/13 00:15:56;;;;;;;6.00;4.73;;;;;;;;;;5145394;27;20489;-55
2021/07/13 00:18:26;;;;;;;8.70;5.70;;;;;;;;;;5151749;28;20451;-55
2021/07/13 00:20:53;;;;;;;9.63;5.60;;;;;;;;;;5160861;27;20490;-53
2021/07/13 00:23:28;;;;;;;7.70;5.17;;;;;;;;;;5177442;27;20452;-53
2021/07/13 00:25:55;;;;;;;9.97;6.20;;;;;;;;;;5177204;27;20543;-54
2021/07/13 00:28:24;;;;;;;10.20;6.03;;;;;;;;;;5177441;27;20434;-52
2021/07/13 00:31:11;;;;;;;9.33;5.70;;;;;;;;;;5177102;27;20434;-54
2021/07/13 00:33:39;;;;;;;9.57;6.07;;;;;;;;;;5176869;27;20437;-55
2021/07/13 00:36:06;;;;;;;8.77;6.47;;;;;;;;;;5164253;27;20453;-55
2021/07/13 00:38:36;;;;;;;11.10;5.50;;;;;;;;;;5156494;27;20464;-54
2021/07/13 00:41:04;;;;;;;12.37;6.57;;;;;;;;;;5156144;28;20527;-52
2021/07/13 00:43:31;;;;;;;13.13;7.17;;;;;;;;;;5156999;28;20487;-55
2021/07/13 00:46:24;;;;;;;9.00;6.70;;;;;;;;;;5156692;28;20465;-55
2021/07/13 00:48:52;;;;;;;13.23;7.20;;;;;;;;;;5156685;28;20457;-51
2021/07/13 00:51:19;;;;;;;7.73;6.23;;;;;;;;;;5156409;28;20453;-54
2021/07/13 00:53:52;;;;;;;7.83;6.83;;;;;;;;;;5147050;28;20468;-53
2021/07/13 00:56:19;;;;;;;9.07;6.67;;;;;;;;;;5143755;28;20495;-53
2021/07/13 00:58:47;;;;;;;11.20;7.20;;;;;;;;;;5156440;28;20448;-53
2021/07/13 01:01:19;;;;;;;10.30;7.00;;;;;;;;;;5145025;27;20468;-55
2021/07/13 01:03:51;;;;;;;9.73;7.40;;;;;;;;;;5142938;27;20462;-55
2021/07/13 01:06:19;;;;;;;8.47;6.90;;;;;;;;;;5122265;28;20442;-53
2021/07/13 01:08:55;;;;;;;8.77;7.87;;;;;;;;;;5139123;28;20450;-53
2021/07/13 01:11:26;;;;;;;12.77;8.50;;;;;;;;;;5121595;28;20461;-53
2021/07/13 01:13:58;;;;;;;12.20;9.33;;;;;;;;;;5138891;28;20464;-55
2021/07/13 01:16:38;;;;;;;10.53;9.43;;;;;;;;;;5139216;28;20657;-52
2021/07/13 01:19:11;;;;;;;13.60;10.07;;;;;;;;;;5138996;28;20466;-51
2021/07/13 01:21:42;;;;;;;13.70;9.10;;;;;;;;;;5139166;28;20429;-52
2021/07/13 01:24:44;;;;;;;12.70;10.43;;;;;;;;;;5139162;28;20486;-50
2021/07/13 01:27:17;;;;;;;31.93;9.63;;;;;;;;;;5139264;28;20500;-53
2021/07/13 01:29:50;;;;;;;21.87;8.90;;;;;;;;;;5139694;28;20454;-53
2021/07/13 01:32:31;;;;;;;10.87;9.50;;;;;;;;;;5139408;28;20482;-54
2021/07/13 01:35:02;;;;;;;13.30;9.53;;;;;;;;;;5154406;27;20500;-54
2021/07/13 01:37:30;;;;;;;10.20;8.40;;;;;;;;;;5159988;27;20510;-54
2021/07/13 01:40:01;;;;;;;11.13;9.80;;;;;;;;;;5176125;27;20485;-55
2021/07/13 01:42:28;;;;;;;13.00;9.30;;;;;;;;;;5181033;27;20492;-52
2021/07/13 01:44:59;;;;;;;11.87;9.17;;;;;;;;;;5180059;27;20443;-56
2021/07/13 01:47:28;;;;;;;13.87;9.00;;;;;;;;;;5180355;27;20413;-53
2021/07/13 01:49:57;;;;;;;12.00;9.50;;;;;;;;;;5163726;27;20506;-55
2021/07/13 01:52:25;;;;;;;11.60;8.83;;;;;;;;;;5159196;27;20457;-54
2021/07/13 01:54:53;;;;;;;10.17;8.37;;;;;;;;;;5159158;27;20438;-54
2021/07/13 01:57:23;;;;;;;12.00;9.10;;;;;;;;;;5159432;27;20437;-51
2021/07/13 02:00:09;;;;;;;12.40;9.13;;;;;;;;;;5159416;27;20481;-56
2021/07/13 02:02:38;;;;;;;12.70;10.13;;;;;;;;;;5159218;27;20662;-53
2021/07/13 02:05:07;;;;;;;11.27;10.03;;;;;;;;;;5159282;27;20441;-56
2021/07/13 02:08:00;;;;;;;12.27;10.00;;;;;;;;;;5159709;27;20437;-56
2021/07/13 02:10:28;;;;;;;11.27;9.40;;;;;;;;;;5158739;27;20449;-53
2021/07/13 02:12:55;;;;;;;14.40;11.00;;;;;;;;;;5156361;27;20458;-54
2021/07/13 02:15:37;;;;;;;13.33;9.67;;;;;;;;;;5158258;27;20461;-56
2021/07/13 02:18:04;;;;;;;14.30;11.23;;;;;;;;;;5137624;28;20450;-55
2021/07/13 02:20:32;;;;;;;15.10;9.77;;;;;;;;;;5137551;28;20482;-51
2021/07/13 02:23:00;;;;;;;15.60;11.20;;;;;;;;;;5144513;27;20445;-51
2021/07/13 02:25:28;;;;;;;11.70;10.50;;;;;;;;;;5157937;27;20513;-55
2021/07/13 02:27:59;;;;;;;13.27;11.57;;;;;;;;;;5158593;27;20851;-54
2021/07/13 02:30:30;;;;;;;14.00;11.10;;;;;;;;;;5157828;27;20516;-55
2021/07/13 02:33:02;;;;;;;15.60;12.23;;;;;;;;;;5158154;27;20483;-61
2021/07/13 02:35:35;;;;;;;15.13;10.93;;;;;;;;;;5155815;27;20452;-56
2021/07/13 02:38:05;;;;;;;15.80;12.50;;;;;;;;;;5157822;27;20484;-53
2021/07/13 02:40:33;;;;;;;14.73;13.00;;;;;;;;;;5157724;27;20515;-54
2021/07/13 02:43:02;;;;;;;15.47;13.30;;;;;;;;;;5157343;27;20457;-55
2021/07/13 02:45:31;;;;;;;15.83;13.63;;;;;;;;;;5131125;28;20550;-56
2021/07/13 02:47:59;;;;;;;16.30;13.23;;;;;;;;;;5142604;27;20446;-54
2021/07/13 02:50:31;;;;;;;14.63;13.10;;;;;;;;;;5157532;27;20643;-53
2021/07/13 02:52:59;;;;;;;14.77;13.03;;;;;;;;;;5157327;27;20641;-53
2021/07/13 02:55:28;;;;;;;18.40;13.77;;;;;;;;;;5157290;27;20449;-54
2021/07/13 02:57:57;;;;;;;14.90;13.07;;;;;;;;;;5148177;27;20473;-51
2021/07/13 03:03:29;;;;;;;20.57;14.67;;;;;;;;;;5155031;27;20455;-54
2021/07/13 03:05:58;;;;;;;16.20;13.90;;;;;;;;;;5157355;27;20437;-54
2021/07/13 03:08:49;;;;;;;16.50;14.03;;;;;;;;;;5157182;27;20457;-56
2021/07/13 03:11:17;;;;;;;20.17;14.33;;;;;;;;;;5156974;27;20449;-54
2021/07/13 03:13:44;;;;;;;17.17;15.37;;;;;;;;;;5157464;27;20426;-56
2021/07/13 03:16:12;;;;;;;16.33;13.43;;;;;;;;;;5155338;27;20457;-53
2021/07/13 03:18:39;;;;;;;18.47;14.20;;;;;;;;;;5157158;27;20472;-55
2021/07/13 03:21:35;;;;;;;20.33;14.30;;;;;;;;;;5157268;27;20488;-55
2021/07/13 03:24:04;;;;;;;14.80;11.93;;;;;;;;;;5154727;27;20482;-54
2021/07/13 03:26:33;;;;;;;19.57;16.43;;;;;;;;;;5156972;27;20449;-55
2021/07/13 03:29:04;;;;;;;15.47;13.60;;;;;;;;;;5156581;27;20454;-55
2021/07/13 03:31:34;;;;;;;16.73;12.83;;;;;;;;;;5156843;27;20496;-53
2021/07/13 03:34:07;;;;;;;21.60;16.00;;;;;;;;;;5156852;27;20457;-54
2021/07/13 03:36:50;;;;;;;16.30;14.57;;;;;;;;;;5157647;27;20470;-51
2021/07/13 03:39:19;;;;;;;21.77;13.60;;;;;;;;;;5157400;27;20462;-57
2021/07/13 03:41:47;;;;;;;16.03;14.33;;;;;;;;;;5156063;27;20485;-55
2021/07/13 03:44:17;;;;;;;17.30;15.30;;;;;;;;;;5156490;27;20460;-56
2021/07/13 03:46:48;;;;;;;15.67;14.00;;;;;;;;;;5154367;27;20526;-52
2021/07/13 03:49:35;;;;;;;19.07;12.20;;;;;;;;;;5155830;27;20509;-54
2021/07/13 03:52:06;;;;;;;14.10;12.60;;;;;;;;;;5154963;27;20519;-55
2021/07/13 03:54:36;;;;;;;15.67;14.07;;;;;;;;;;5155341;28;20446;-53
2021/07/13 03:57:07;;;;;;;15.50;12.97;;;;;;;;;;5155032;28;20434;-54
2021/07/13 03:59:48;;;;;;;18.53;13.90;;;;;;;;;;5137848;28;20524;-53
2021/07/13 04:02:15;;;;;;;15.50;13.83;;;;;;;;;;5154159;28;20501;-52
2021/07/13 04:04:43;;;;;;;17.60;14.97;;;;;;;;;;5155697;28;20449;-52
2021/07/13 04:07:10;;;;;;;22.10;13.83;;;;;;;;;;5154894;28;20467;-55
2021/07/13 04:09:41;;;;;;;16.70;14.97;;;;;;;;;;5155698;27;20467;-55
2021/07/13 04:12:11;;;;;;;19.60;15.80;;;;;;;;;;5155420;28;20443;-52
2021/07/13 04:14:46;;;;;;;20.70;15.97;;;;;;;;;;5154181;28;20449;-56
2021/07/13 04:17:16;;;;;;;17.97;14.97;;;;;;;;;;5164123;27;20440;-56
2021/07/13 04:19:54;;;;;;;17.13;14.60;;;;;;;;;;5154721;27;20454;-60
2021/07/13 04:22:21;;;;;;;20.83;17.20;;;;;;;;;;5133642;28;20485;-56
2021/07/13 04:24:50;;;;;;;19.07;16.23;;;;;;;;;;5133828;28;20454;-56
2021/07/13 04:27:18;;;;;;;18.53;15.40;;;;;;;;;;5116159;28;20426;-54
2021/07/13 04:29:45;;;;;;;17.40;15.47;;;;;;;;;;5155274;28;20429;-55
2021/07/13 04:32:28;;;;;;;17.87;15.57;;;;;;;;;;5154794;28;20442;-55
2021/07/13 04:34:56;;;;;;;17.17;14.80;;;;;;;;;;5154471;27;20441;-52
2021/07/13 04:37:24;;;;;;;18.53;16.53;;;;;;;;;;5158210;27;20475;-56
2021/07/13 04:40:04;;;;;;;17.03;14.90;;;;;;;;;;5158944;27;20461;-51
2021/07/13 04:42:31;;;;;;;18.60;16.73;;;;;;;;;;5156417;27;20509;-54
2021/07/13 04:44:59;;;;;;;17.37;15.20;;;;;;;;;;5157790;27;20483;-53
2021/07/13 04:47:27;;;;;;;16.73;15.03;;;;;;;;;;5158055;27;20467;-52
2021/07/13 04:49:54;;;;;;;23.07;15.67;;;;;;;;;;5158840;27;20460;-52
2021/07/13 04:52:49;;;;;;;20.57;17.93;;;;;;;;;;5141800;27;20457;-51
2021/07/13 04:55:20;;;;;;;20.20;16.70;;;;;;;;;;5137229;28;20880;-53
2021/07/13 04:57:47;;;;;;;18.73;16.07;;;;;;;;;;5137110;28;20462;-54
2021/07/13 05:00:25;;;;;;;19.30;16.70;;;;;;;;;;5139487;27;20463;-53
2021/07/13 05:02:56;;;;;;;23.17;18.20;;;;;;;;;;5157946;27;20436;-53
2021/07/13 05:05:27;;;;;;;20.90;16.57;;;;;;;;;;5158908;27;20473;-54
2021/07/13 05:07:58;;;;;;;22.57;18.80;;;;;;;;;;5157683;27;20438;-54
2021/07/13 05:10:28;;;;;;;20.73;17.10;;;;;;;;;;5158515;27;20418;-52
2021/07/13 05:12:56;;;;;;;21.17;17.37;;;;;;;;;;5158290;27;20464;-52
2021/07/13 05:15:25;;;;;;;20.30;17.87;;;;;;;;;;5157410;27;20461;-53
2021/07/13 05:17:53;;;;;;;28.03;20.07;;;;;;;;;;5157798;27;20461;-54
2021/07/13 05:20:22;;;;;;;23.27;17.93;;;;;;;;;;5157477;27;20460;-54
2021/07/13 05:23:00;;;;;;;32.37;22.60;;;;;;;;;;5157398;27;20422;-51
2021/07/13 05:25:43;;;;;;;30.20;22.93;;;;;;;;;;5156803;27;20437;-60
2021/07/13 05:28:27;;;;;;;31.87;22.40;;;;;;;;;;5149987;27;20449;-53
2021/07/13 05:30:54;;;;;;;32.07;24.60;;;;;;;;;;5159486;27;20463;-55
2021/07/13 05:36:30;;;;;;;38.47;27.70;;;;;;;;;;5156613;27;20461;-53
2021/07/13 05:41:48;;;;;;;42.73;30.13;;;;;;;;;;5120840;28;20494;-54
2021/07/13 05:44:16;;;;;;;51.77;33.50;;;;;;;;;;5120814;28;20570;-52
2021/07/13 05:46:43;;;;;;;59.97;35.30;;;;;;;;;;5137238;28;20481;-53
2021/07/13 05:49:24;;;;;;;55.60;33.67;;;;;;;;;;5127664;27;20515;-54
2021/07/13 05:51:52;;;;;;;58.83;34.10;;;;;;;;;;5158795;27;20460;-55
2021/07/13 05:54:19;;;;;;;54.07;35.27;;;;;;;;;;5150136;27;20513;-49
2021/07/13 05:57:11;;;;;;;54.07;33.63;;;;;;;;;;5126582;28;20455;-54
2021/07/13 05:59:41;;;;;;;54.23;34.90;;;;;;;;;;5131671;28;20446;-54
2021/07/13 06:02:09;;;;;;;60.43;35.43;;;;;;;;;;5137027;28;20577;-51
2021/07/13 06:04:40;;;;;;;59.10;35.90;;;;;;;;;;5137135;27;20449;-53
2021/07/13 06:07:07;;;;;;;62.07;36.20;;;;;;;;;;5144032;27;20469;-53
2021/07/13 06:09:34;;;;;;;70.43;38.57;;;;;;;;;;5157929;27;20429;-51
2021/07/13 06:12:02;;;;;;;76.03;39.10;;;;;;;;;;5157911;27;20428;-55
2021/07/13 06:14:34;;;;;;;69.10;37.80;;;;;;;;;;5158135;27;20463;-56
2021/07/13 06:17:04;;;;;;;68.17;38.30;;;;;;;;;;5159396;27;20450;-55
2021/07/13 06:19:55;;;;;;;80.10;41.97;;;;;;;;;;5158103;27;20442;-54
2021/07/13 06:25:22;;;;;;;80.20;37.70;;;;;;;;;;5156699;27;20513;-55
2021/07/13 06:27:50;;;;;;;68.73;36.87;;;;;;;;;;5158247;27;20445;-54
2021/07/13 06:30:18;;;;;;;63.47;34.10;;;;;;;;;;5157885;27;20587;-52
2021/07/13 06:33:04;;;;;;;64.57;35.97;;;;;;;;;;5158450;27;20438;-54
2021/07/13 06:35:31;;;;;;;70.70;36.53;;;;;;;;;;5157929;27;20441;-53
2021/07/13 06:37:59;;;;;;;63.90;36.90;;;;;;;;;;5157080;27;20453;-54
2021/07/13 06:40:55;;;;;;;61.40;33.57;;;;;;;;;;5157525;27;20514;-53
2021/07/13 06:43:26;;;;;;;71.37;35.67;;;;;;;;;;5156277;27;20453;-53
2021/07/13 06:45:53;;;;;;;64.37;35.37;;;;;;;;;;5157912;27;20441;-53
2021/07/13 06:51:27;;;;;;;73.23;37.97;;;;;;;;;;5147113;27;20495;-53
2021/07/13 06:53:55;;;;;;;71.67;36.77;;;;;;;;;;5157913;27;20498;-52
2021/07/13 06:56:26;;;;;;;62.53;36.13;;;;;;;;;;5157274;27;20444;-52
2021/07/13 06:58:54;;;;;;;60.90;34.70;;;;;;;;;;5157377;27;20436;-53
2021/07/13 07:01:42;;;;;;;58.87;37.13;;;;;;;;;;5156517;27;20511;-55
2021/07/13 07:04:09;;;;;;;65.47;33.37;;;;;;;;;;5147339;27;20475;-51
2021/07/13 07:06:38;;;;;;;67.60;36.20;;;;;;;;;;5157612;27;20509;-54
2021/07/13 07:09:05;;;;;;;56.50;36.37;;;;;;;;;;5157536;27;20446;-53
2021/07/13 07:11:35;;;;;;;54.57;34.43;;;;;;;;;;5157557;27;20456;-54
2021/07/13 07:14:11;;;;;;;54.00;33.20;;;;;;;;;;5157574;27;20497;-54
2021/07/13 07:16:40;;;;;;;61.97;32.27;;;;;;;;;;5155030;27;20441;-55
2021/07/13 07:19:07;;;;;;;40.83;28.57;;;;;;;;;;5157347;27;20496;-54
2021/07/13 07:21:45;;;;;;;47.60;26.83;;;;;;;;;;5156828;27;20496;-55
2021/07/13 07:24:12;;;;;;;50.60;28.60;;;;;;;;;;5156274;27;20464;-55
2021/07/13 07:26:42;;;;;;;44.20;25.77;;;;;;;;;;5157634;27;20429;-55
2021/07/13 07:29:24;;;;;;;28.70;21.90;;;;;;;;;;5157093;27;20464;-54
2021/07/13 07:31:54;;;;;;;37.67;22.87;;;;;;;;;;5151050;27;20513;-58
2021/07/13 07:34:24;;;;;;;28.90;18.70;;;;;;;;;;5156334;27;20622;-55
2021/07/13 07:37:10;;;;;;;38.23;21.90;;;;;;;;;;5157014;27;20461;-55
2021/07/13 07:39:45;;;;;;;29.63;20.70;;;;;;;;;;5156108;27;20460;-55
2021/07/13 07:42:12;;;;;;;30.80;21.50;;;;;;;;;;5155655;27;20491;-57
2021/07/13 07:44:49;;;;;;;31.80;22.60;;;;;;;;;;5156050;27;20465;-55
2021/07/13 07:47:16;;;;;;;27.73;20.50;;;;;;;;;;5156376;27;20468;-55
2021/07/13 07:49:44;;;;;;;27.83;20.17;;;;;;;;;;5156981;27;20430;-55
2021/07/13 07:52:11;;;;;;;26.23;18.30;;;;;;;;;;5155228;27;20483;-56
2021/07/13 07:54:40;;;;;;;23.63;19.23;;;;;;;;;;5155772;27;20429;-52
2021/07/13 07:57:07;;;;;;;26.67;19.67;;;;;;;;;;5156326;28;20560;-54
2021/07/13 07:59:35;;;;;;;24.33;18.93;;;;;;;;;;5156992;27;20453;-54
2021/07/13 08:02:02;;;;;;;26.23;18.63;;;;;;;;;;5156834;28;20473;-54
2021/07/13 08:04:31;;;;;;;25.30;19.07;;;;;;;;;;5156993;28;20461;-58
2021/07/13 08:07:09;;;;;;;25.50;19.67;;;;;;;;;;5156662;27;20447;-54
2021/07/13 08:09:36;;;;;;;23.47;18.30;;;;;;;;;;5156607;27;20445;-58
2021/07/13 08:12:05;;;;;;;23.50;18.43;;;;;;;;;;5160145;27;20468;-55
2021/07/13 08:14:43;;;;;;;24.80;18.30;;;;;;;;;;5160522;27;20441;-54
2021/07/13 08:17:13;;;;;;;23.17;18.90;;;;;;;;;;5160559;27;20478;-56
2021/07/13 08:25:29;;;;;;;25.30;18.97;;;;;;;;;;5161677;27;20445;-54
2021/07/13 08:28:15;;;;;;;27.17;21.20;;;;;;;;;;5160513;27;20485;-55
2021/07/13 08:30:45;;;;;;;33.60;22.70;;;;;;;;;;5161456;27;20454;-52
2021/07/13 08:33:12;;;;;;;30.73;23.70;;;;;;;;;;5160596;27;20502;-55
2021/07/13 08:35:40;;;;;;;26.37;20.50;;;;;;;;;;5160806;27;20524;-54
2021/07/13 08:38:08;;;;;;;28.40;21.43;;;;;;;;;;5160917;27;20449;-52
2021/07/13 08:40:36;;;;;;;28.13;21.90;;;;;;;;;;5160386;27;20449;-55
2021/07/13 08:46:08;;;;;;;25.00;20.60;;;;;;;;;;5137729;27;20480;-56
2021/07/13 08:48:39;;;;;;;23.43;18.63;;;;;;;;;;5128788;28;20483;-54
2021/07/13 08:51:08;;;;;;;23.00;20.30;;;;;;;;;;5139440;28;20419;-53
2021/07/13 08:53:35;;;;;;;27.47;19.83;;;;;;;;;;5126391;28;20462;-50
2021/07/13 08:56:02;;;;;;;22.10;19.90;;;;;;;;;;5136751;27;20446;-52
2021/07/13 09:01:24;;;;;;;19.27;17.07;;;;;;;;;;5131741;28;20481;-50
2021/07/13 09:04:15;;;;;;;27.23;19.83;;;;;;;;;;5121255;28;20578;-55
2021/07/13 09:09:30;;;;;;;26.10;16.40;;;;;;;;;;5137530;28;20515;-52
2021/07/13 09:12:31;;;;;;;22.00;19.13;;;;;;;;;;5137606;28;20442;-56
2021/07/13 09:15:19;;;;;;;22.30;18.23;;;;;;;;;;5132886;28;20456;-53
2021/07/13 09:18:06;;;;;;;27.40;18.17;;;;;;;;;;5121219;28;20442;-56
2021/07/13 09:23:48;;;;;;;20.00;17.20;;;;;;;;;;5132331;27;20551;-51
2021/07/13 09:26:35;;;;;;;22.90;17.67;;;;;;;;;;5138261;27;20464;-56
2021/07/13 09:29:03;;;;;;;19.57;17.43;;;;;;;;;;5138541;28;20457;-55
2021/07/13 09:31:40;;;;;;;19.00;17.00;;;;;;;;;;5137458;28;20473;-55
2021/07/13 09:34:10;;;;;;;18.50;16.50;;;;;;;;;;5137988;28;20480;-56
2021/07/13 09:36:39;;;;;;;18.50;16.03;;;;;;;;;;5138340;28;20442;-51
2021/07/13 09:39:14;;;;;;;22.00;14.80;;;;;;;;;;5138088;27;20454;-55
2021/07/13 09:42:05;;;;;;;18.80;15.57;;;;;;;;;;5138722;27;20454;-57
2021/07/13 09:45:04;;;;;;;20.30;17.10;;;;;;;;;;5117746;28;20451;-53
2021/07/13 09:47:56;;;;;;;16.20;13.90;;;;;;;;;;5119083;28;20498;-54
2021/07/13 09:50:36;;;;;;;16.70;14.23;;;;;;;;;;5123830;28;20483;-55
2021/07/13 09:53:06;;;;;;;18.07;15.07;;;;;;;;;;5138125;28;20499;-52
2021/07/13 09:55:34;;;;;;;26.07;16.73;;;;;;;;;;5138398;28;20452;-53
2021/07/13 09:58:33;;;;;;;21.07;16.00;;;;;;;;;;5137469;28;20431;-54
2021/07/13 10:01:01;;;;;;;16.17;13.70;;;;;;;;;;5137496;28;20443;-55
2021/07/13 10:03:32;;;;;;;16.33;14.20;;;;;;;;;;5134303;28;20523;-54
2021/07/13 10:06:28;;;;;;;17.20;15.40;;;;;;;;;;5116897;28;20532;-56
2021/07/13 10:08:58;;;;;;;15.57;13.97;;;;;;;;;;5116744;28;20475;-56
2021/07/13 10:11:25;;;;;;;17.03;13.67;;;;;;;;;;5116752;28;20435;-54
2021/07/13 10:14:00;;;;;;;16.30;13.43;;;;;;;;;;5123510;28;20459;-56
2021/07/13 10:16:28;;;;;;;17.50;14.10;;;;;;;;;;5137524;28;20447;-57
2021/07/13 10:19:09;;;;;;;16.10;12.67;;;;;;;;;;5137694;28;20510;-53
2021/07/13 10:21:37;;;;;;;13.97;12.57;;;;;;;;;;5136899;28;20439;-55
2021/07/13 10:24:08;;;;;;;14.03;12.50;;;;;;;;;;5137509;27;20486;-55
2021/07/13 10:29:42;;;;;;;13.90;12.13;;;;;;;;;;5136941;28;20434;-55
2021/07/13 10:32:42;;;;;;;14.20;12.73;;;;;;;;;;5137133;28;20443;-55
2021/07/13 10:35:26;;;;;;;17.53;14.03;;;;;;;;;;5136406;27;20462;-54
2021/07/13 10:37:56;;;;;;;15.93;14.33;;;;;;;;;;5134290;28;20477;-52
2021/07/13 10:40:41;;;;;;;16.17;13.80;;;;;;;;;;5136184;28;20692;-54
2021/07/13 10:43:16;;;;;;;17.53;13.60;;;;;;;;;;5136728;27;20589;-53
2021/07/13 10:45:44;;;;;;;14.80;12.10;;;;;;;;;;5136464;28;20442;-54
2021/07/13 10:48:29;;;;;;;11.53;10.20;;;;;;;;;;5136844;28;20455;-55
2021/07/13 10:51:01;;;;;;;14.23;11.23;;;;;;;;;;5136629;27;20534;-52
2021/07/13 10:53:35;;;;;;;14.13;12.50;;;;;;;;;;5118800;28;20518;-55
2021/07/13 10:56:11;;;;;;;13.33;11.17;;;;;;;;;;5136864;28;20487;-53
2021/07/13 10:58:39;;;;;;;13.67;11.50;;;;;;;;;;5136319;28;20488;-53
2021/07/13 11:01:10;;;;;;;15.63;12.27;;;;;;;;;;5136440;28;20529;-55
2021/07/13 11:03:56;;;;;;;8.43;7.50;;;;;;;;;;5135649;27;20600;-56
2021/07/13 11:06:40;;;;;;;9.93;6.60;;;;;;;;;;5135106;28;20467;-55
2021/07/13 11:09:18;;;;;;;7.10;6.00;;;;;;;;;;5136650;28;20423;-53
2021/07/13 11:11:46;;;;;;;6.40;5.67;;;;;;;;;;5136150;28;20428;-54
2021/07/13 11:14:23;;;;;;;7.57;5.47;;;;;;;;;;5130545;27;20451;-54
2021/07/13 11:16:51;;;;;;;5.70;5.10;;;;;;;;;;5130393;28;20611;-54
2021/07/13 11:19:18;;;;;;;19.83;8.10;;;;;;;;;;5136302;28;20491;-53
2021/07/13 11:21:56;;;;;;;8.50;6.50;;;;;;;;;;5136381;28;20416;-54
2021/07/13 11:24:24;;;;;;;10.13;7.73;;;;;;;;;;5135635;28;20502;-55
2021/07/13 11:27:00;;;;;;;8.33;7.13;;;;;;;;;;5126271;28;20541;-54
2021/07/13 11:32:26;;;;;;;10.47;8.57;;;;;;;;;;5104027;28;20469;-56
2021/07/13 11:34:56;;;;;;;10.30;9.30;;;;;;;;;;5114492;28;20501;-55
2021/07/13 11:37:52;;;;;;;11.60;10.30;;;;;;;;;;5101242;28;20463;-49
2021/07/13 11:40:24;;;;;;;12.53;11.20;;;;;;;;;;5099196;28;20497;-52
2021/07/13 11:43:01;;;;;;;12.17;10.87;;;;;;;;;;5106837;28;20496;-55
2021/07/13 11:45:33;;;;;;;13.67;11.43;;;;;;;;;;5108629;28;20457;-51
2021/07/13 11:48:11;;;;;;;12.40;9.40;;;;;;;;;;5097714;28;20489;-55
2021/07/13 11:50:41;;;;;;;16.07;10.30;;;;;;;;;;5095820;28;20429;-56
2021/07/13 11:53:33;;;;;;;11.50;9.93;;;;;;;;;;5121961;28;20457;-58
2021/07/13 11:56:13;;;;;;;14.50;12.93;;;;;;;;;;5136066;28;20466;-56
2021/07/13 11:58:50;;;;;;;12.10;10.80;;;;;;;;;;5136016;28;20448;-54
2021/07/13 12:01:20;;;;;;;10.40;9.00;;;;;;;;;;5135234;28;20456;-58
2021/07/13 12:04:06;;;;;;;12.23;10.93;;;;;;;;;;5135672;28;20473;-50
2021/07/13 12:06:34;;;;;;;10.53;8.90;;;;;;;;;;5119708;28;20533;-52
2021/07/13 12:09:08;;;;;;;12.93;9.60;;;;;;;;;;5114295;28;20471;-51
2021/07/13 12:11:46;;;;;;;7.80;5.13;;;;;;;;;;5113885;28;20462;-56
2021/07/13 12:14:16;;;;;;;7.50;4.50;;;;;;;;;;5114064;28;20461;-55
2021/07/13 12:16:43;;;;;;;4.23;3.50;;;;;;;;;;5114552;28;20514;-55
2021/07/13 12:19:16;;;;;;;6.37;3.27;;;;;;;;;;5114981;28;20511;-56
2021/07/13 12:21:44;;;;;;;5.73;3.50;;;;;;;;;;5094784;28;20482;-51
2021/07/13 12:24:16;;;;;;;4.20;3.33;;;;;;;;;;5093822;28;20491;-52
2021/07/13 12:26:48;;;;;;;4.50;3.17;;;;;;;;;;5094316;28;20473;-54
2021/07/13 12:29:19;;;;;;;5.20;3.63;;;;;;;;;;5113347;28;20464;-53
2021/07/13 12:31:54;;;;;;;4.60;3.60;;;;;;;;;;5113198;28;20442;-51
2021/07/13 12:37:32;;;;;;;4.87;3.47;;;;;;;;;;5111095;28;20428;-54
2021/07/13 12:40:08;;;;;;;4.60;3.20;;;;;;;;;;5114479;28;20442;-55
2021/07/13 12:42:49;;;;;;;3.83;3.43;;;;;;;;;;5114785;28;20501;-56
2021/07/13 12:45:19;;;;;;;7.37;6.60;;;;;;;;;;5096809;28;20535;-51
2021/07/13 12:47:47;;;;;;;10.30;9.30;;;;;;;;;;5114572;28;20471;-54
2021/07/13 12:53:30;;;;;;;9.20;5.40;;;;;;;;;;5113778;28;20457;-54
2021/07/13 12:56:08;;;;;;;8.13;5.57;;;;;;;;;;5093528;28;20444;-54
2021/07/13 12:58:47;;;;;;;14.30;9.13;;;;;;;;;;5113060;28;20447;-56
2021/07/13 13:01:19;;;;;;;10.10;5.83;;;;;;;;;;5117722;28;20484;-53
2021/07/13 13:06:33;;;;;;;10.93;9.70;;;;;;;;;;5129559;28;20458;-55
2021/07/13 13:09:15;;;;;;;11.70;9.77;;;;;;;;;;5133786;28;20460;-54
2021/07/13 13:12:00;;;;;;;12.83;9.73;;;;;;;;;;5117079;28;20447;-52
2021/07/13 13:14:36;;;;;;;11.37;9.43;;;;;;;;;;5131071;28;20468;-53
2021/07/13 13:17:06;;;;;;;17.30;12.43;;;;;;;;;;5103869;28;20485;-56
2021/07/13 13:19:54;;;;;;;9.43;7.30;;;;;;;;;;5132542;28;20462;-49
2021/07/13 13:25:11;;;;;;;9.23;8.27;;;;;;;;;;5136868;28;20472;-54
2021/07/13 13:27:43;;;;;;;9.10;7.60;;;;;;;;;;5138048;28;20456;-53
2021/07/13 13:30:15;;;;;;;10.40;9.33;;;;;;;;;;5138928;28;20442;-54
2021/07/13 13:32:52;;;;;;;8.30;7.47;;;;;;;;;;5132101;28;20540;-54
2021/07/13 13:38:47;;;;;;;8.87;7.97;;;;;;;;;;5136260;27;20469;-58
2021/07/13 13:41:18;;;;;;;11.53;9.63;;;;;;;;;;5114091;28;20548;-56
2021/07/13 13:44:02;;;;;;;12.43;8.70;;;;;;;;;;5134907;28;20485;-56
2021/07/13 13:46:30;;;;;;;10.50;8.47;;;;;;;;;;5134480;28;20473;-57
2021/07/13 13:49:00;;;;;;;19.27;17.10;;;;;;;;;;5135250;28;20468;-60
2021/07/13 13:51:37;;;;;;;11.73;8.67;;;;;;;;;;5134071;28;20496;-55
2021/07/13 13:54:06;;;;;;;16.20;14.57;;;;;;;;;;5114567;28;20447;-59
2021/07/13 13:56:34;;;;;;;11.03;9.93;;;;;;;;;;5127524;28;20476;-57
2021/07/13 13:59:17;;;;;;;13.10;9.60;;;;;;;;;;5134083;28;20444;-56
2021/07/13 14:01:45;;;;;;;10.33;9.30;;;;;;;;;;5119710;28;20462;-57
2021/07/13 14:04:16;;;;;;;17.23;11.33;;;;;;;;;;5130356;28;20477;-56
2021/07/13 14:06:45;;;;;;;12.00;10.77;;;;;;;;;;5134697;28;20553;-59
2021/07/13 14:09:13;;;;;;;14.00;12.70;;;;;;;;;;5133544;28;20473;-58
2021/07/13 14:11:43;;;;;;;15.67;13.80;;;;;;;;;;5131388;28;20508;-59
2021/07/13 14:14:11;;;;;;;18.97;14.93;;;;;;;;;;5133277;28;20447;-56
2021/07/13 14:16:38;;;;;;;15.47;13.87;;;;;;;;;;5130765;28;20710;-57
2021/07/13 14:19:06;;;;;;;18.60;16.60;;;;;;;;;;5129729;28;20434;-58
2021/07/13 14:21:34;;;;;;;17.40;15.70;;;;;;;;;;5131339;28;20438;-57
2021/07/13 14:24:02;;;;;;;19.60;17.50;;;;;;;;;;5128102;28;20491;-60
2021/07/13 14:26:32;;;;;;;19.00;16.67;;;;;;;;;;5124877;28;20468;-58
2021/07/13 14:29:03;;;;;;;19.27;17.27;;;;;;;;;;5127522;28;20469;-58
2021/07/13 14:31:40;;;;;;;19.23;17.20;;;;;;;;;;5130525;28;20453;-59
2021/07/13 14:34:14;;;;;;;19.30;16.73;;;;;;;;;;5132730;28;20446;-60
2021/07/13 14:36:45;;;;;;;18.17;16.30;;;;;;;;;;5129746;27;20480;-57
2021/07/13 14:39:13;;;;;;;16.93;15.33;;;;;;;;;;5154668;27;20448;-59
2021/07/13 14:41:44;;;;;;;17.57;15.87;;;;;;;;;;5153172;27;20449;-59
2021/07/13 14:44:18;;;;;;;19.77;17.60;;;;;;;;;;5158153;27;20536;-60
2021/07/13 14:46:46;;;;;;;18.47;16.67;;;;;;;;;;5173774;27;20448;-59
2021/07/13 14:49:14;;;;;;;20.70;18.30;;;;;;;;;;5153965;27;20457;-59
2021/07/13 14:51:46;;;;;;;21.57;19.23;;;;;;;;;;5152789;27;20462;-59
2021/07/13 14:54:13;;;;;;;17.90;15.23;;;;;;;;;;5152779;27;20505;-59
2021/07/13 14:56:42;;;;;;;18.47;16.57;;;;;;;;;;5152490;27;20461;-58
2021/07/13 14:59:11;;;;;;;21.17;19.00;;;;;;;;;;5119027;28;20478;-59
2021/07/13 15:01:39;;;;;;;19.17;17.27;;;;;;;;;;5147314;27;20495;-60
2021/07/13 15:04:07;;;;;;;16.53;14.93;;;;;;;;;;5151752;27;20464;-60
2021/07/13 15:06:36;;;;;;;16.50;14.07;;;;;;;;;;5153655;27;20464;-60
2021/07/13 15:09:06;;;;;;;21.80;15.23;;;;;;;;;;5154694;27;20441;-60
2021/07/13 15:11:43;;;;;;;16.10;14.07;;;;;;;;;;5147796;27;20681;-57
2021/07/13 15:14:14;;;;;;;14.53;12.77;;;;;;;;;;5151713;27;20460;-60
2021/07/13 15:16:48;;;;;;;19.73;14.07;;;;;;;;;;5152560;27;20467;-58
2021/07/13 15:19:20;;;;;;;14.60;12.10;;;;;;;;;;5152158;27;20478;-59
2021/07/13 15:24:50;;;;;;;12.00;10.80;;;;;;;;;;5141896;27;20508;-58
2021/07/13 15:27:19;;;;;;;13.37;11.10;;;;;;;;;;5145624;27;20519;-58
2021/07/13 15:32:40;;;;;;;12.10;10.93;;;;;;;;;;5151155;27;20478;-59
2021/07/13 15:38:06;;;;;;;7.97;7.17;;;;;;;;;;5145744;27;20501;-58
2021/07/13 15:40:43;;;;;;;7.00;6.30;;;;;;;;;;5141300;27;20482;-59
2021/07/13 15:43:11;;;;;;;7.13;6.33;;;;;;;;;;5150457;27;20468;-60
2021/07/13 15:45:53;;;;;;;9.53;7.27;;;;;;;;;;5150288;27;20488;-56
2021/07/13 15:51:22;;;;;;;6.97;5.80;;;;;;;;;;5151551;27;20450;-58
2021/07/13 15:53:57;;;;;;;9.87;8.10;;;;;;;;;;5151775;27;20465;-60
2021/07/13 15:56:29;;;;;;;8.07;5.57;;;;;;;;;;5148064;27;20464;-57
2021/07/13 15:58:56;;;;;;;8.33;6.90;;;;;;;;;;5135928;28;20502;-59
2021/07/13 16:01:27;;;;;;;7.70;6.33;;;;;;;;;;5149316;28;20472;-59